Time;durP1;ratioP1;P1;durP2;ratioP2;P2;SDS_P1;SDS_P2;PMS_P1;PMS_P2;Temp;Humidity;BMP_temperature;BMP_pressure;BME280_temperature;BME280_humidity;BME280_pressure;Samples;Min_cycle;Max_cycle;Signal;HPM_P1;HPM_P2
2020/12/06 00:00:47;;;;;;;18.97;9.77;;;1.50;99.90;;;;;;2089555;28;20176;-62
2020/12/06 00:01:48;;;;;;;21.53;12.63;;;1.50;99.90;;;;;;2089434;28;20187;-63
2020/12/06 00:02:48;;;;;;;21.23;11.10;;;1.50;99.90;;;;;;2089700;28;20600;-63
2020/12/06 00:03:49;;;;;;;18.47;10.27;;;1.50;99.90;;;;;;2089163;28;20407;-64
2020/12/06 00:04:50;;;;;;;15.93;10.03;;;1.50;99.90;;;;;;2089525;28;20553;-65
2020/12/06 00:05:51;;;;;;;18.67;10.87;;;1.50;99.90;;;;;;2089136;28;20260;-65
2020/12/06 00:06:51;;;;;;;16.03;10.33;;;1.50;99.90;;;;;;2085157;28;20200;-65
2020/12/06 00:07:52;;;;;;;17.00;9.73;;;1.50;99.90;;;;;;2080876;28;20181;-65
2020/12/06 00:08:53;;;;;;;17.03;9.63;;;1.50;99.90;;;;;;2081392;28;20178;-65
2020/12/06 00:09:53;;;;;;;14.40;8.63;;;1.50;99.90;;;;;;2080425;28;20184;-65
2020/12/06 00:10:54;;;;;;;11.50;7.50;;;1.60;99.90;;;;;;2080651;28;20177;-64
2020/12/06 00:11:58;;;;;;;32.73;13.47;;;1.60;99.90;;;;;;2081280;28;20211;-64
2020/12/06 00:12:59;;;;;;;11.70;7.68;;;1.40;99.90;;;;;;2080872;28;20177;-65
2020/12/06 00:14:00;;;;;;;13.03;8.27;;;1.40;99.90;;;;;;2080963;28;20703;-64
2020/12/06 00:15:02;;;;;;;14.18;8.20;;;1.40;99.90;;;;;;2081158;28;20204;-64
2020/12/06 00:16:03;;;;;;;14.55;8.63;;;1.40;99.90;;;;;;2081189;28;20177;-66
2020/12/06 00:17:03;;;;;;;16.20;9.27;;;1.40;99.90;;;;;;2081353;28;20212;-65
2020/12/06 00:18:04;;;;;;;18.37;9.67;;;1.40;99.90;;;;;;2081234;28;20199;-65
2020/12/06 00:19:05;;;;;;;16.00;9.57;;;1.40;99.90;;;;;;2081352;28;20562;-65
2020/12/06 00:20:10;;;;;;;22.07;10.87;;;1.50;99.90;;;;;;2081026;28;20173;-65
2020/12/06 00:21:13;;;;;;;12.70;8.13;;;1.50;99.90;;;;;;2081268;28;20173;-65
2020/12/06 00:22:14;;;;;;;17.25;9.05;;;1.50;99.90;;;;;;2080621;28;20235;-65
2020/12/06 00:23:20;;;;;;;11.73;7.10;;;1.60;99.90;;;;;;2080828;28;20623;-65
2020/12/06 00:24:21;;;;;;;10.85;7.25;;;1.60;99.90;;;;;;2081240;28;20181;-66
2020/12/06 00:25:22;;;;;;;9.40;6.43;;;1.60;99.90;;;;;;2080759;28;20229;-65
2020/12/06 00:26:25;;;;;;;12.73;7.33;;;1.60;99.90;;;;;;2081012;28;20750;-64
2020/12/06 00:27:25;;;;;;;12.85;7.60;;;1.60;99.90;;;;;;2081149;28;20569;-65
2020/12/06 00:28:26;;;;;;;14.33;7.80;;;1.60;99.90;;;;;;2081166;28;20189;-64
2020/12/06 00:29:27;;;;;;;15.97;7.90;;;1.60;99.90;;;;;;2081323;28;20711;-65
2020/12/06 00:30:27;;;;;;;17.07;8.73;;;1.60;99.90;;;;;;2081029;28;20224;-64
2020/12/06 00:31:28;;;;;;;15.90;7.87;;;1.60;99.90;;;;;;2080927;28;20212;-65
2020/12/06 00:32:29;;;;;;;11.30;7.37;;;1.60;99.90;;;;;;2080511;28;20224;-65
2020/12/06 00:33:30;;;;;;;10.83;6.50;;;1.60;99.90;;;;;;2080660;28;20185;-67
2020/12/06 00:34:30;;;;;;;12.70;7.88;;;1.60;99.90;;;;;;2081044;28;20189;-65
2020/12/06 00:35:31;;;;;;;13.47;7.80;;;1.60;99.90;;;;;;2081186;28;20632;-65
2020/12/06 00:36:32;;;;;;;16.77;8.87;;;1.60;99.90;;;;;;2080807;28;20513;-66
2020/12/06 00:37:33;;;;;;;14.13;7.47;;;1.60;99.90;;;;;;2081247;28;20272;-65
2020/12/06 00:38:34;;;;;;;13.05;7.05;;;1.60;99.90;;;;;;2081081;28;20632;-66
2020/12/06 00:39:35;;;;;;;19.53;9.37;;;1.70;99.90;;;;;;2081277;28;20209;-65
2020/12/06 00:40:35;;;;;;;16.23;8.27;;;1.70;99.90;;;;;;2080979;28;20640;-65
2020/12/06 00:41:36;;;;;;;8.07;5.60;;;1.80;99.90;;;;;;2080772;28;20193;-66
2020/12/06 00:42:37;;;;;;;12.00;7.40;;;1.70;99.90;;;;;;2081023;28;20177;-66
2020/12/06 00:43:41;;;;;;;14.33;7.93;;;1.60;99.90;;;;;;2081172;28;20216;-65
2020/12/06 00:44:41;;;;;;;14.27;7.65;;;1.60;99.90;;;;;;2081097;28;20881;-65
2020/12/06 00:45:42;;;;;;;9.30;6.03;;;1.60;99.90;;;;;;2081055;28;20181;-65
2020/12/06 00:46:43;;;;;;;11.20;6.47;;;1.60;99.90;;;;;;2080762;28;20550;-65
2020/12/06 00:47:44;;;;;;;10.27;6.50;;;1.50;99.90;;;;;;2081151;28;20173;-65
2020/12/06 00:48:45;;;;;;;14.90;7.37;;;1.60;99.90;;;;;;2080320;28;20569;-65
2020/12/06 00:49:45;;;;;;;26.53;9.23;;;1.60;99.90;;;;;;2080636;28;20184;-65
2020/12/06 00:50:46;;;;;;;10.83;6.23;;;1.50;99.90;;;;;;2081021;28;20658;-66
2020/12/06 00:51:49;;;;;;;12.73;7.57;;;1.50;99.90;;;;;;2081257;28;20173;-65
2020/12/06 00:52:50;;;;;;;10.10;5.90;;;1.50;99.90;;;;;;2088445;28;20623;-66
2020/12/06 00:53:51;;;;;;;12.32;6.47;;;1.50;99.90;;;;;;2080677;28;20186;-64
2020/12/06 00:54:52;;;;;;;12.67;6.07;;;1.50;99.90;;;;;;2080257;28;20647;-65
2020/12/06 00:55:52;;;;;;;9.07;5.73;;;1.50;99.90;;;;;;2081296;28;20187;-66
2020/12/06 00:56:57;;;;;;;12.00;6.60;;;1.60;99.90;;;;;;2080724;28;20302;-65
2020/12/06 00:57:57;;;;;;;10.35;5.55;;;1.60;99.90;;;;;;2080934;28;20408;-66
2020/12/06 00:58:58;;;;;;;10.73;6.07;;;1.60;99.90;;;;;;2081272;28;20177;-66
2020/12/06 00:59:59;;;;;;;11.17;6.03;;;1.60;99.90;;;;;;2081283;28;20177;-65
2020/12/06 01:00:59;;;;;;;11.03;6.30;;;1.50;99.90;;;;;;2081028;28;20528;-65
2020/12/06 01:02:03;;;;;;;9.43;5.10;;;1.50;99.90;;;;;;2081117;28;20173;-66
2020/12/06 01:03:03;;;;;;;6.30;4.25;;;1.50;99.90;;;;;;2080494;28;20177;-65
2020/12/06 01:04:04;;;;;;;9.27;5.40;;;1.40;99.90;;;;;;2080642;28;20217;-65
2020/12/06 01:05:06;;;;;;;9.97;5.53;;;1.40;99.90;;;;;;2081224;28;20192;-66
2020/12/06 01:06:08;;;;;;;7.13;4.38;;;1.40;99.90;;;;;;2081055;28;20187;-65
2020/12/06 01:07:08;;;;;;;8.38;4.82;;;1.40;99.90;;;;;;2081172;28;20753;-65
2020/12/06 01:08:09;;;;;;;10.43;5.30;;;1.50;99.90;;;;;;2080755;28;20192;-65
2020/12/06 01:09:10;;;;;;;7.40;4.50;;;1.50;99.90;;;;;;2081203;28;20197;-66
2020/12/06 01:10:12;;;;;;;8.73;4.67;;;1.50;99.90;;;;;;2080952;28;20670;-65
2020/12/06 01:11:15;;;;;;;8.80;5.40;;;1.60;99.90;;;;;;2080307;28;20566;-66
2020/12/06 01:12:16;;;;;;;8.02;5.07;;;1.60;99.90;;;;;;2080567;28;20193;-66
2020/12/06 01:13:17;;;;;;;9.47;5.50;;;1.60;99.90;;;;;;2081246;28;20191;-65
2020/12/06 01:14:18;;;;;;;7.60;5.10;;;1.60;99.90;;;;;;2080822;28;20188;-65
2020/12/06 01:15:19;;;;;;;10.27;6.30;;;1.60;99.90;;;;;;2081178;28;20227;-66
2020/12/06 01:16:20;;;;;;;7.37;4.93;;;1.60;99.90;;;;;;2081033;28;20640;-64
2020/12/06 01:17:20;;;;;;;9.73;6.00;;;1.50;99.90;;;;;;2081087;28;20242;-65
2020/12/06 01:18:21;;;;;;;10.40;5.83;;;1.50;99.90;;;;;;2080890;28;20174;-65
2020/12/06 01:19:22;;;;;;;7.97;4.97;;;1.50;99.90;;;;;;2088318;28;20185;-65
2020/12/06 01:20:22;;;;;;;10.10;5.63;;;1.60;99.90;;;;;;2088623;28;20227;-65
2020/12/06 01:21:23;;;;;;;10.80;5.80;;;1.70;99.90;;;;;;2080927;28;20173;-64
2020/12/06 01:22:24;;;;;;;11.30;6.20;;;1.70;99.90;;;;;;2080911;28;20220;-65
2020/12/06 01:23:25;;;;;;;12.33;6.43;;;1.80;99.90;;;;;;2081167;28;20188;-65
2020/12/06 01:24:25;;;;;;;11.43;6.57;;;1.80;99.90;;;;;;2080846;28;20180;-66
2020/12/06 01:25:26;;;;;;;9.93;5.70;;;1.80;99.90;;;;;;2081127;28;20279;-66
2020/12/06 01:26:27;;;;;;;10.97;5.73;;;1.80;99.90;;;;;;2080998;28;20475;-63
2020/12/06 01:27:27;;;;;;;8.50;5.33;;;1.80;99.90;;;;;;2080912;28;20292;-65
2020/12/06 01:28:28;;;;;;;10.77;5.67;;;1.70;99.90;;;;;;2080799;28;20272;-65
2020/12/06 01:29:29;;;;;;;9.33;6.13;;;1.70;99.90;;;;;;2080771;28;20181;-65
2020/12/06 01:30:29;;;;;;;10.57;5.77;;;1.70;99.90;;;;;;2080742;28;20178;-65
2020/12/06 01:31:30;;;;;;;8.03;4.77;;;1.70;99.90;;;;;;2080767;28;20180;-65
2020/12/06 01:32:32;;;;;;;6.33;4.60;;;1.60;99.90;;;;;;2080933;28;20193;-68
2020/12/06 01:33:33;;;;;;;11.25;5.72;;;1.70;99.90;;;;;;2088500;28;20184;-65
2020/12/06 01:34:34;;;;;;;8.83;5.60;;;1.60;99.90;;;;;;2090849;28;20656;-65
2020/12/06 01:35:34;;;;;;;12.63;5.87;;;1.70;99.90;;;;;;2080585;28;20427;-66
2020/12/06 01:36:35;;;;;;;10.13;6.00;;;1.70;99.90;;;;;;2080797;28;20185;-65
2020/12/06 01:37:36;;;;;;;8.53;5.80;;;1.70;99.90;;;;;;2082568;28;20545;-65
2020/12/06 01:38:36;;;;;;;8.50;4.60;;;1.80;99.90;;;;;;2082455;28;20181;-66
2020/12/06 01:39:37;;;;;;;9.37;5.40;;;1.80;99.90;;;;;;2082565;28;20197;-66
2020/12/06 01:40:40;;;;;;;9.37;5.80;;;1.80;99.90;;;;;;2082335;28;20181;-65
2020/12/06 01:41:41;;;;;;;7.70;5.13;;;1.80;99.90;;;;;;2089794;28;20542;-65
2020/12/06 01:42:41;;;;;;;9.30;5.73;;;1.70;99.90;;;;;;2090168;28;20264;-65
2020/12/06 01:43:53;;;;;;;7.43;4.60;;;1.70;99.90;;;;;;2082553;28;20184;-65
2020/12/06 01:44:58;;;;;;;8.18;4.53;;;1.60;99.90;;;;;;2090090;28;20160;-65
2020/12/06 01:45:59;;;;;;;8.80;5.55;;;1.60;99.90;;;;;;2089362;28;20181;-65
2020/12/06 01:47:02;;;;;;;7.03;4.80;;;1.60;99.90;;;;;;2073565;28;20189;-65
2020/12/06 01:48:07;;;;;;;10.15;6.15;;;1.60;99.90;;;;;;2073947;28;20224;-65
2020/12/06 01:49:08;;;;;;;11.05;5.45;;;1.70;99.90;;;;;;2082381;28;20177;-65
2020/12/06 01:50:09;;;;;;;10.00;5.47;;;1.70;99.90;;;;;;2081876;28;20613;-66
2020/12/06 01:51:10;;;;;;;7.80;4.40;;;1.70;99.90;;;;;;2081308;28;20189;-66
2020/12/06 01:52:11;;;;;;;8.30;4.80;;;1.70;99.90;;;;;;2082359;28;20181;-65
2020/12/06 01:53:12;;;;;;;6.00;4.10;;;1.80;99.90;;;;;;2082486;28;20189;-66
2020/12/06 01:54:13;;;;;;;7.57;4.70;;;1.80;99.90;;;;;;2082342;28;20645;-65
2020/12/06 01:55:14;;;;;;;6.63;4.13;;;1.80;99.90;;;;;;2082166;28;20258;-65
2020/12/06 01:56:15;;;;;;;7.67;4.07;;;1.80;99.90;;;;;;2082347;28;20670;-65
2020/12/06 01:57:16;;;;;;;10.13;4.85;;;1.70;99.90;;;;;;2081387;28;20205;-66
2020/12/06 01:58:17;;;;;;;7.00;4.15;;;1.60;99.90;;;;;;2081583;28;20557;-66
2020/12/06 01:59:18;;;;;;;5.93;3.63;;;1.50;99.90;;;;;;2082435;28;20205;-65
2020/12/06 02:00:19;;;;;;;4.47;3.20;;;1.50;99.90;;;;;;2082255;28;20191;-65
2020/12/06 02:01:19;;;;;;;4.10;2.90;;;1.50;99.90;;;;;;2082282;28;20188;-65
2020/12/06 02:02:20;;;;;;;5.00;3.70;;;1.40;99.90;;;;;;2082266;28;20187;-65
2020/12/06 02:03:21;;;;;;;4.93;3.20;;;1.50;99.90;;;;;;2082429;28;20185;-66
2020/12/06 02:04:25;;;;;;;3.60;2.60;;;1.50;99.90;;;;;;2082359;28;20272;-65
2020/12/06 02:05:29;;;;;;;5.40;2.95;;;1.60;99.90;;;;;;2081833;28;20188;-65
2020/12/06 02:06:30;;;;;;;4.80;3.05;;;1.60;99.90;;;;;;2081764;28;20197;-65
2020/12/06 02:07:35;;;;;;;4.03;2.90;;;1.70;99.90;;;;;;2082144;28;20212;-65
2020/12/06 02:08:36;;;;;;;5.35;3.25;;;1.70;99.90;;;;;;2082372;28;20193;-66
2020/12/06 02:09:37;;;;;;;4.28;2.83;;;1.80;99.90;;;;;;2082371;28;20204;-65
2020/12/06 02:10:37;;;;;;;4.93;2.77;;;1.80;99.90;;;;;;2082349;28;20310;-66
2020/12/06 02:11:38;;;;;;;4.63;3.10;;;1.80;99.90;;;;;;2082225;28;20177;-65
2020/12/06 02:12:46;;;;;;;4.53;3.10;;;1.80;99.90;;;;;;2082322;28;20177;-65
2020/12/06 02:13:47;;;;;;;5.25;3.13;;;1.90;99.90;;;;;;2082247;28;20678;-65
2020/12/06 02:14:48;;;;;;;4.63;3.00;;;1.80;99.90;;;;;;2082039;28;20184;-65
2020/12/06 02:15:49;;;;;;;3.27;2.20;;;1.80;99.90;;;;;;2082257;28;20201;-66
2020/12/06 02:16:54;;;;;;;3.45;2.53;;;1.90;99.90;;;;;;2082226;28;20201;-65
2020/12/06 02:17:55;;;;;;;4.78;2.85;;;1.80;99.90;;;;;;2082687;28;20181;-68
2020/12/06 02:18:56;;;;;;;5.50;3.20;;;1.80;99.90;;;;;;2082141;28;20177;-66
2020/12/06 02:19:56;;;;;;;4.00;2.73;;;1.80;99.90;;;;;;2082500;28;20177;-66
2020/12/06 02:21:00;;;;;;;4.97;3.00;;;1.80;99.90;;;;;;2081949;28;20204;-65
2020/12/06 02:22:01;;;;;;;5.75;2.75;;;1.80;99.90;;;;;;2082468;28;20260;-66
2020/12/06 02:23:04;;;;;;;5.00;2.93;;;1.70;99.90;;;;;;2082311;28;20561;-64
2020/12/06 02:24:10;;;;;;;3.55;2.75;;;1.80;99.90;;;;;;2081417;28;20210;-65
2020/12/06 02:25:10;;;;;;;4.72;2.90;;;1.80;99.90;;;;;;2081790;28;20177;-65
2020/12/06 02:26:11;;;;;;;3.10;2.37;;;1.80;99.90;;;;;;2082229;28;20177;-65
2020/12/06 02:27:12;;;;;;;3.50;2.33;;;1.70;99.90;;;;;;2082193;28;20722;-64
2020/12/06 02:28:12;;;;;;;2.60;1.93;;;1.70;99.90;;;;;;2082191;28;20185;-65
2020/12/06 02:29:14;;;;;;;4.23;2.63;;;1.70;99.90;;;;;;2082282;28;20177;-66
2020/12/06 02:30:15;;;;;;;4.55;2.92;;;1.70;99.90;;;;;;2089772;28;20177;-65
2020/12/06 02:31:15;;;;;;;3.53;2.60;;;1.70;99.90;;;;;;2089721;28;20230;-65
2020/12/06 02:32:16;;;;;;;4.60;3.00;;;1.70;99.90;;;;;;2082196;28;20539;-65
2020/12/06 02:33:17;;;;;;;6.43;3.00;;;1.60;99.90;;;;;;2081559;28;20189;-66
2020/12/06 02:34:17;;;;;;;7.13;3.90;;;1.60;99.90;;;;;;2073456;28;20220;-66
2020/12/06 02:35:18;;;;;;;5.33;2.90;;;1.60;99.90;;;;;;2081335;28;20749;-65
2020/12/06 02:36:19;;;;;;;4.00;2.53;;;1.60;99.90;;;;;;2082301;28;20205;-65
2020/12/06 02:37:19;;;;;;;4.33;2.87;;;1.60;99.90;;;;;;2082132;28;20276;-66
2020/12/06 02:38:20;;;;;;;3.73;2.50;;;1.50;99.90;;;;;;2082242;28;20267;-64
2020/12/06 02:39:21;;;;;;;5.43;2.93;;;1.50;99.90;;;;;;2089789;28;20191;-65
2020/12/06 02:40:21;;;;;;;2.30;1.87;;;1.50;99.90;;;;;;2089607;28;20767;-65
2020/12/06 02:41:22;;;;;;;3.13;2.00;;;1.50;99.90;;;;;;2072701;28;20228;-65
2020/12/06 02:42:23;;;;;;;3.10;2.03;;;1.60;99.90;;;;;;2081543;28;20250;-65
2020/12/06 02:43:24;;;;;;;2.75;1.90;;;1.60;99.90;;;;;;2082013;28;20550;-65
2020/12/06 02:44:24;;;;;;;4.67;2.73;;;1.60;99.90;;;;;;2082220;28;20177;-65
2020/12/06 02:45:25;;;;;;;3.40;2.63;;;1.60;99.90;;;;;;2082051;28;20635;-67
2020/12/06 02:46:26;;;;;;;5.67;2.97;;;1.60;99.90;;;;;;2082118;28;20181;-68
2020/12/06 02:47:26;;;;;;;3.40;2.33;;;1.60;99.90;;;;;;2082021;28;20212;-64
2020/12/06 02:48:27;;;;;;;4.50;3.17;;;1.60;99.90;;;;;;2081801;28;20615;-65
2020/12/06 02:49:28;;;;;;;4.00;2.80;;;1.60;99.90;;;;;;2082130;28;20189;-63
2020/12/06 02:50:28;;;;;;;4.77;2.80;;;1.60;99.90;;;;;;2082036;28;20188;-64
2020/12/06 02:51:29;;;;;;;2.73;2.20;;;1.60;99.90;;;;;;2081899;28;20223;-65
2020/12/06 02:52:30;;;;;;;3.97;2.60;;;1.60;99.90;;;;;;2082024;28;20639;-66
2020/12/06 02:53:32;;;;;;;3.80;2.43;;;1.60;99.90;;;;;;2089784;28;20184;-65
2020/12/06 02:54:33;;;;;;;3.63;2.67;;;1.50;99.90;;;;;;2089611;28;20180;-65
2020/12/06 02:55:34;;;;;;;4.38;2.90;;;1.50;99.90;;;;;;2082088;28;20282;-66
2020/12/06 02:56:35;;;;;;;5.17;3.10;;;1.50;99.90;;;;;;2089550;28;20188;-65
2020/12/06 02:57:35;;;;;;;5.07;2.80;;;1.50;99.90;;;;;;2089447;28;20196;-66
2020/12/06 02:58:36;;;;;;;2.87;2.50;;;1.50;99.90;;;;;;2081907;28;20223;-65
2020/12/06 02:59:37;;;;;;;4.37;2.80;;;1.60;99.90;;;;;;2082158;28;20239;-65
2020/12/06 03:00:37;;;;;;;4.03;2.70;;;1.50;99.90;;;;;;2081845;28;20714;-65
2020/12/06 03:01:41;;;;;;;4.50;2.80;;;1.50;99.90;;;;;;2081842;28;20606;-66
2020/12/06 03:02:42;;;;;;;3.53;2.55;;;1.50;99.90;;;;;;2080188;28;20189;-66
2020/12/06 03:03:43;;;;;;;3.93;2.70;;;1.60;99.90;;;;;;2081858;28;20193;-65
2020/12/06 03:04:44;;;;;;;4.20;2.80;;;1.50;99.90;;;;;;2081842;28;20212;-65
2020/12/06 03:05:44;;;;;;;4.17;2.57;;;1.50;99.90;;;;;;2081943;28;20192;-65
2020/12/06 03:06:45;;;;;;;3.97;2.60;;;1.50;99.90;;;;;;2081848;28;20558;-65
2020/12/06 03:07:46;;;;;;;4.77;2.93;;;1.50;99.90;;;;;;2081892;28;20192;-66
2020/12/06 03:08:47;;;;;;;6.37;2.70;;;1.60;99.90;;;;;;2081606;28;20193;-65
2020/12/06 03:09:47;;;;;;;4.50;2.60;;;1.60;99.90;;;;;;2081833;28;20209;-65
2020/12/06 03:10:48;;;;;;;5.57;3.53;;;1.60;99.90;;;;;;2081611;28;20216;-66
2020/12/06 03:11:48;;;;;;;5.23;2.87;;;1.50;99.90;;;;;;2081841;28;20264;-65
2020/12/06 03:12:49;;;;;;;4.07;2.70;;;1.50;99.90;;;;;;2081652;28;20587;-65
2020/12/06 03:13:50;;;;;;;4.50;2.40;;;1.60;99.90;;;;;;2081905;28;20196;-65
2020/12/06 03:14:50;;;;;;;3.73;2.63;;;1.50;99.90;;;;;;2089367;28;20180;-65
2020/12/06 03:15:51;;;;;;;2.87;2.33;;;1.50;99.90;;;;;;2089293;28;20636;-65
2020/12/06 03:16:52;;;;;;;8.47;3.60;;;1.60;99.90;;;;;;2081840;28;20196;-65
2020/12/06 03:17:52;;;;;;;3.93;2.80;;;1.60;99.90;;;;;;2081786;28;20184;-65
2020/12/06 03:18:53;;;;;;;4.67;2.60;;;1.50;99.90;;;;;;2081686;28;20177;-65
2020/12/06 03:19:54;;;;;;;3.70;2.87;;;1.60;99.90;;;;;;2081806;28;20315;-65
2020/12/06 03:20:55;;;;;;;3.05;2.33;;;1.50;99.90;;;;;;2080832;28;20191;-65
2020/12/06 03:21:56;;;;;;;3.77;2.17;;;1.60;99.90;;;;;;2081272;28;20243;-65
2020/12/06 03:22:59;;;;;;;2.93;2.00;;;1.60;99.90;;;;;;2081732;28;20177;-65
2020/12/06 03:23:59;;;;;;;2.72;1.90;;;1.60;99.90;;;;;;2081735;28;20558;-65
2020/12/06 03:25:01;;;;;;;2.97;2.33;;;1.60;99.90;;;;;;2081582;28;20220;-65
2020/12/06 03:26:02;;;;;;;3.35;2.15;;;1.60;99.90;;;;;;2081861;28;20315;-66
2020/12/06 03:27:03;;;;;;;2.57;1.87;;;1.50;99.90;;;;;;2081621;28;20253;-65
2020/12/06 03:28:03;;;;;;;2.50;1.93;;;1.60;99.90;;;;;;2081773;28;20260;-65
2020/12/06 03:29:04;;;;;;;2.97;2.10;;;1.60;99.90;;;;;;2081615;28;20681;-66
2020/12/06 03:30:05;;;;;;;2.97;1.47;;;1.60;99.90;;;;;;2081598;28;20185;-66
2020/12/06 03:31:06;;;;;;;3.03;1.93;;;1.60;99.90;;;;;;2081462;28;20188;-65
2020/12/06 03:32:06;;;;;;;2.67;2.07;;;1.60;99.90;;;;;;2081736;28;20185;-66
2020/12/06 03:33:07;;;;;;;2.07;1.77;;;1.60;99.90;;;;;;2081625;28;20188;-65
2020/12/06 03:34:08;;;;;;;2.63;2.10;;;1.60;99.90;;;;;;2081736;28;20181;-65
2020/12/06 03:35:09;;;;;;;2.37;2.10;;;1.60;99.90;;;;;;2081523;28;20224;-65
2020/12/06 03:36:10;;;;;;;2.63;2.00;;;1.50;99.90;;;;;;2083997;28;20598;-65
2020/12/06 03:37:10;;;;;;;2.73;2.00;;;1.60;99.90;;;;;;2081500;28;20265;-65
2020/12/06 03:38:11;;;;;;;2.10;1.80;;;1.60;99.90;;;;;;2081762;28;20181;-66
2020/12/06 03:39:15;;;;;;;2.30;2.00;;;1.60;99.90;;;;;;2081623;28;20247;-65
2020/12/06 03:40:16;;;;;;;2.65;2.00;;;1.60;99.90;;;;;;2081748;28;20182;-65
2020/12/06 03:41:17;;;;;;;2.30;2.10;;;1.60;99.90;;;;;;2081206;28;20279;-65
2020/12/06 03:42:17;;;;;;;3.67;2.00;;;1.60;99.90;;;;;;2080860;28;20200;-66
2020/12/06 03:43:18;;;;;;;3.00;2.00;;;1.70;99.90;;;;;;2081100;28;20284;-65
2020/12/06 03:44:19;;;;;;;2.17;1.90;;;1.70;99.90;;;;;;2089073;28;20340;-65
2020/12/06 03:45:20;;;;;;;1.70;1.60;;;1.70;99.90;;;;;;2089364;28;20208;-65
2020/12/06 03:46:20;;;;;;;1.38;1.20;;;1.60;99.90;;;;;;2081629;28;20211;-65
2020/12/06 03:47:22;;;;;;;1.47;1.23;;;1.60;99.90;;;;;;2081456;28;20208;-65
2020/12/06 03:48:23;;;;;;;1.95;1.50;;;1.70;99.90;;;;;;2081500;28;20178;-65
2020/12/06 03:49:23;;;;;;;1.90;1.40;;;1.70;99.90;;;;;;2089188;28;20594;-65
2020/12/06 03:50:24;;;;;;;1.87;1.23;;;1.70;99.90;;;;;;2088974;28;20180;-65
2020/12/06 03:51:25;;;;;;;1.90;1.20;;;1.70;99.90;;;;;;2081355;28;20189;-66
2020/12/06 03:52:26;;;;;;;1.60;1.10;;;1.70;99.90;;;;;;2081355;28;20195;-66
2020/12/06 03:53:26;;;;;;;1.60;1.40;;;1.70;99.90;;;;;;2081626;28;20192;-65
2020/12/06 03:54:27;;;;;;;1.40;1.27;;;1.70;99.90;;;;;;2081688;28;20540;-65
2020/12/06 03:55:28;;;;;;;1.50;1.20;;;1.70;99.90;;;;;;2081486;28;20896;-66
2020/12/06 03:56:28;;;;;;;1.30;1.10;;;1.70;99.90;;;;;;2080808;28;20220;-64
2020/12/06 03:57:29;;;;;;;1.50;1.40;;;1.70;99.90;;;;;;2080584;28;20189;-65
2020/12/06 03:58:30;;;;;;;1.17;1.07;;;1.70;99.90;;;;;;2081476;28;20181;-66
2020/12/06 03:59:30;;;;;;;1.53;0.90;;;1.60;99.90;;;;;;2086639;28;20184;-65
2020/12/06 04:00:31;;;;;;;1.30;1.20;;;1.70;99.90;;;;;;2088987;28;20192;-65
2020/12/06 04:01:32;;;;;;;2.17;1.10;;;1.70;99.90;;;;;;2081429;28;20268;-66
2020/12/06 04:02:32;;;;;;;2.03;1.17;;;1.60;99.90;;;;;;2081629;28;20257;-66
2020/12/06 04:03:33;;;;;;;2.27;1.30;;;1.60;99.90;;;;;;2081307;28;20290;-63
2020/12/06 04:04:34;;;;;;;1.17;1.07;;;1.60;99.90;;;;;;2081524;28;20169;-63
2020/12/06 04:05:34;;;;;;;1.10;1.00;;;1.60;99.90;;;;;;2081437;28;20822;-65
2020/12/06 04:06:35;;;;;;;1.03;0.97;;;1.60;99.90;;;;;;2081507;28;20177;-62
2020/12/06 04:07:36;;;;;;;1.40;1.10;;;1.60;99.90;;;;;;2081453;28;20195;-63
2020/12/06 04:08:36;;;;;;;1.20;1.10;;;1.60;99.90;;;;;;2081342;28;20188;-63
2020/12/06 04:09:37;;;;;;;1.67;1.10;;;1.60;99.90;;;;;;2081298;28;20648;-62
2020/12/06 04:10:38;;;;;;;1.90;1.20;;;1.70;99.90;;;;;;2081404;28;20602;-62
2020/12/06 04:11:38;;;;;;;1.13;1.03;;;1.70;99.90;;;;;;2081000;28;20233;-63
2020/12/06 04:12:39;;;;;;;1.10;1.00;;;1.60;99.90;;;;;;2081522;28;20192;-62
2020/12/06 04:13:40;;;;;;;1.10;1.00;;;1.60;99.90;;;;;;2081210;28;20173;-63
2020/12/06 04:14:41;;;;;;;1.53;1.10;;;1.60;99.90;;;;;;2080582;28;20221;-64
2020/12/06 04:15:41;;;;;;;0.90;0.80;;;1.60;99.90;;;;;;2080917;28;20200;-62
2020/12/06 04:16:42;;;;;;;0.77;0.70;;;1.50;99.90;;;;;;2081488;28;20200;-63
2020/12/06 04:17:43;;;;;;;0.80;0.80;;;1.60;99.90;;;;;;2081336;28;20814;-63
2020/12/06 04:18:43;;;;;;;1.53;0.70;;;1.60;99.90;;;;;;2081229;28;20208;-62
2020/12/06 04:19:44;;;;;;;0.93;0.70;;;1.60;99.90;;;;;;2081423;28;20173;-62
2020/12/06 04:20:45;;;;;;;0.60;0.60;;;1.60;99.90;;;;;;2081407;28;20319;-63
2020/12/06 04:21:45;;;;;;;1.43;0.90;;;1.60;99.90;;;;;;2081337;28;20196;-62
2020/12/06 04:22:46;;;;;;;0.60;0.60;;;1.60;99.90;;;;;;2081324;28;20644;-62
2020/12/06 04:23:46;;;;;;;0.63;0.63;;;1.60;99.90;;;;;;2081388;28;20264;-63
2020/12/06 04:24:47;;;;;;;0.87;0.80;;;1.60;99.90;;;;;;2081164;28;20259;-63
2020/12/06 04:25:48;;;;;;;0.80;0.73;;;1.60;99.90;;;;;;2081145;28;20183;-66
2020/12/06 04:26:48;;;;;;;0.90;0.70;;;1.60;99.90;;;;;;2081211;28;20201;-64
2020/12/06 04:27:49;;;;;;;0.70;0.60;;;1.60;99.90;;;;;;2081271;28;20760;-63
2020/12/06 04:28:50;;;;;;;0.50;0.50;;;1.60;99.90;;;;;;2080805;28;20216;-62
2020/12/06 04:29:50;;;;;;;0.67;0.67;;;1.60;99.90;;;;;;2072651;28;20676;-63
2020/12/06 04:30:51;;;;;;;0.63;0.63;;;1.60;99.90;;;;;;2080190;28;20232;-62
2020/12/06 04:31:52;;;;;;;1.07;0.80;;;1.60;99.90;;;;;;2081284;28;20230;-62
2020/12/06 04:32:53;;;;;;;0.80;0.80;;;1.60;99.90;;;;;;2081294;28;20699;-63
2020/12/06 04:33:53;;;;;;;3.20;1.20;;;1.60;99.90;;;;;;2081385;28;20619;-63
2020/12/06 04:34:54;;;;;;;1.10;0.70;;;1.50;99.90;;;;;;2080994;28;20215;-62
2020/12/06 04:35:54;;;;;;;0.60;0.60;;;1.50;99.90;;;;;;2081304;28;20169;-62
2020/12/06 04:36:55;;;;;;;0.70;0.70;;;1.50;99.90;;;;;;2081120;28;20572;-64
2020/12/06 04:37:56;;;;;;;0.70;0.70;;;1.50;99.90;;;;;;2081311;28;20184;-63
2020/12/06 04:38:56;;;;;;;0.50;0.50;;;1.50;99.90;;;;;;2080479;28;20177;-63
2020/12/06 04:39:57;;;;;;;0.50;0.50;;;1.50;99.90;;;;;;2080471;28;20549;-63
2020/12/06 04:40:58;;;;;;;0.67;0.67;;;1.50;99.90;;;;;;2080736;28;20173;-62
2020/12/06 04:42:02;;;;;;;1.00;0.73;;;1.50;99.90;;;;;;2081339;28;20180;-63
2020/12/06 04:43:03;;;;;;;0.73;0.73;;;1.50;99.90;;;;;;2080550;28;20174;-62
2020/12/06 04:44:04;;;;;;;0.77;0.70;;;1.50;99.90;;;;;;2080630;28;20192;-63
2020/12/06 04:45:05;;;;;;;0.70;0.63;;;1.40;99.90;;;;;;2080592;28;20181;-65
2020/12/06 04:46:06;;;;;;;1.10;0.83;;;1.50;99.90;;;;;;2080657;28;20184;-62
2020/12/06 04:47:14;;;;;;;0.80;0.60;;;1.50;99.90;;;;;;2080916;28;20204;-63
2020/12/06 04:48:44;;;;;;;1.40;0.80;;;1.50;99.90;;;;;;2080636;28;20174;-62
2020/12/06 04:49:55;;;;;;;0.50;0.50;;;1.50;99.90;;;;;;2084156;28;20218;-63
2020/12/06 04:51:03;;;;;;;0.60;0.60;;;1.50;99.90;;;;;;2080124;28;20177;-63
2020/12/06 04:52:06;;;;;;;0.40;0.40;;;1.50;99.90;;;;;;2081205;28;20179;-63
2020/12/06 04:53:07;;;;;;;0.60;0.60;;;1.50;99.90;;;;;;2088006;28;20187;-63
2020/12/06 04:54:09;;;;;;;0.40;0.40;;;1.50;99.90;;;;;;2080831;28;20181;-63
2020/12/06 04:55:14;;;;;;;0.40;0.40;;;1.50;99.90;;;;;;2080866;28;20220;-62
2020/12/06 04:56:19;;;;;;;0.30;0.30;;;1.60;99.90;;;;;;2080299;28;20185;-63
2020/12/06 04:57:21;;;;;;;0.40;0.40;;;1.60;99.90;;;;;;2080036;28;20213;-62
2020/12/06 04:58:27;;;;;;;0.30;0.30;;;1.50;99.90;;;;;;2080085;28;20656;-62
2020/12/06 04:59:28;;;;;;;0.40;0.40;;;1.50;99.90;;;;;;2080472;28;20161;-63
2020/12/06 05:00:36;;;;;;;0.50;0.43;;;1.50;99.90;;;;;;2080184;28;20759;-63
2020/12/06 05:01:39;;;;;;;0.52;0.52;;;1.50;99.90;;;;;;2080095;28;20584;-62
2020/12/06 05:02:46;;;;;;;0.45;0.45;;;1.50;99.90;;;;;;2080254;28;20181;-62
2020/12/06 05:03:54;;;;;;;0.60;0.60;;;1.50;99.90;;;;;;2072863;28;20165;-62
2020/12/06 05:05:02;;;;;;;0.45;0.45;;;1.50;99.90;;;;;;2080350;28;20208;-63
2020/12/06 05:06:05;;;;;;;0.47;0.47;;;1.50;99.90;;;;;;2080327;28;20180;-63
2020/12/06 05:07:05;;;;;;;0.38;0.38;;;1.50;99.90;;;;;;2080939;28;20215;-62
2020/12/06 05:08:11;;;;;;;0.50;0.50;;;1.50;99.90;;;;;;2080023;28;20224;-63
2020/12/06 05:09:16;;;;;;;0.40;0.40;;;1.50;99.90;;;;;;2080330;28;20242;-63
2020/12/06 05:10:17;;;;;;;0.38;0.38;;;1.40;99.90;;;;;;2080613;28;20567;-62
2020/12/06 05:11:18;;;;;;;0.40;0.40;;;1.50;99.90;;;;;;2081579;28;20189;-63
2020/12/06 05:12:19;;;;;;;0.50;0.50;;;1.50;99.90;;;;;;2081763;28;20228;-64
2020/12/06 05:13:20;;;;;;;0.73;0.60;;;1.50;99.90;;;;;;2082040;28;20185;-63
2020/12/06 05:14:21;;;;;;;0.83;0.50;;;1.50;99.90;;;;;;2082332;28;20216;-63
2020/12/06 05:15:21;;;;;;;0.37;0.37;;;1.50;99.90;;;;;;2082406;28;20215;-62
2020/12/06 05:16:22;;;;;;;0.30;0.30;;;1.50;99.90;;;;;;2082485;28;20181;-62
2020/12/06 05:17:23;;;;;;;0.40;0.40;;;1.50;99.90;;;;;;2073736;28;20217;-62
2020/12/06 05:18:24;;;;;;;0.30;0.30;;;1.60;99.90;;;;;;2073699;28;20217;-62
2020/12/06 05:19:27;;;;;;;0.37;0.37;;;1.50;99.90;;;;;;2082550;28;20268;-63
2020/12/06 05:20:28;;;;;;;0.30;0.30;;;1.50;99.90;;;;;;2082406;28;20233;-61
2020/12/06 05:21:44;;;;;;;0.30;0.30;;;1.50;99.90;;;;;;2082376;28;20188;-63
2020/12/06 05:22:47;;;;;;;0.30;0.30;;;1.60;99.90;;;;;;2082466;28;20630;-63
2020/12/06 05:23:48;;;;;;;0.30;0.30;;;1.50;99.90;;;;;;2082450;28;20552;-62